Weather at Blackwell Tonkawa Municipal Airport

Public forecast

Using degrees Fahrenheit for public forecast. Weather courtesy of forecast.io.

Current aviation weather report (METAR) for Blackwell Tonkawa Municipal Airport

Retrieved 2021/01/17 04:35 UTC (0 seconds ago):

KBKN 170435Z AUTO 32008KT 10SM CLR 02/M04 A2999 RMK AO2

Closest aviation forecast (TAF) to Blackwell Tonkawa Municipal Airport

Closest forecast is Ponca City Regional Airport, 12.0 nm (22.3 km) E. Retrieved 2021-01-17 00:22 UTC (4 hours ago):

TAF KPNC 162320Z 1700/1724 25005KT P6SM BKN100 FM170800 32012KT P6SM SCT080 SCT180